Time;durP1;ratioP1;P1;durP2;ratioP2;P2;SDS_P1;SDS_P2;PMS_P1;PMS_P2;Temp;Humidity;BMP_temperature;BMP_pressure;BME280_temperature;BME280_humidity;BME280_pressure;Samples;Min_cycle;Max_cycle;Signal;HPM_P1;HPM_P2
2022/12/29 00:02:16;;;;;;;220.90;207.80;;;11.00;99.90;;;;;;5097830;28;20109;-69
2022/12/29 00:04:42;;;;;;;227.43;213.77;;;11.00;99.90;;;;;;5096805;28;20040;-69
2022/12/29 00:07:08;;;;;;;235.52;221.48;;;11.00;99.90;;;;;;5097769;28;20094;-69
2022/12/29 00:09:35;;;;;;;235.05;220.90;;;11.00;99.90;;;;;;5097337;28;20043;-70
2022/12/29 00:12:01;;;;;;;238.80;224.73;;;11.10;99.90;;;;;;5097622;28;20443;-69
2022/12/29 00:17:12;;;;;;;243.98;229.52;;;11.00;99.90;;;;;;5097570;28;20058;-69
2022/12/29 00:36:35;;;;;;;242.02;227.45;;;11.00;99.90;;;;;;5097283;28;20129;-69
2022/12/29 00:44:34;;;;;;;237.07;222.50;;;11.10;99.90;;;;;;5096837;28;20502;-69
2022/12/29 00:47:04;;;;;;;241.88;226.93;;;11.10;99.90;;;;;;5096808;28;20075;-69
2022/12/29 00:49:30;;;;;;;238.88;224.27;;;11.10;99.90;;;;;;5096953;28;20048;-69
2022/12/29 00:52:01;;;;;;;246.00;231.27;;;11.10;99.90;;;;;;5096730;28;20048;-69
2022/12/29 00:54:38;;;;;;;245.00;230.23;;;11.10;99.90;;;;;;5097032;28;20040;-69
2022/12/29 00:57:06;;;;;;;243.32;228.68;;;11.20;99.90;;;;;;5096988;28;20375;-69
2022/12/29 00:59:34;;;;;;;250.65;235.80;;;11.30;99.90;;;;;;5096899;28;20040;-70
2022/12/29 01:01:59;;;;;;;246.00;231.65;;;11.30;99.90;;;;;;5096567;28;20039;-69
2022/12/29 01:04:26;;;;;;;240.38;226.00;;;11.30;99.90;;;;;;5096490;28;20048;-69
2022/12/29 01:06:52;;;;;;;243.75;229.23;;;11.30;99.90;;;;;;5096808;28;20326;-69
2022/12/29 01:12:05;;;;;;;239.43;224.95;;;11.30;99.90;;;;;;5096821;28;20086;-69
2022/12/29 01:14:30;;;;;;;236.90;222.82;;;11.20;99.90;;;;;;5096747;28;20067;-69
2022/12/29 01:16:56;;;;;;;242.45;227.75;;;11.10;99.90;;;;;;5095705;28;20091;-69
2022/12/29 01:19:23;;;;;;;239.52;225.32;;;11.20;99.90;;;;;;5096668;28;20046;-70
2022/12/29 01:21:49;;;;;;;238.27;224.07;;;11.20;99.90;;;;;;5096368;28;20036;-69
2022/12/29 01:24:16;;;;;;;242.75;228.27;;;11.30;99.90;;;;;;5096335;28;20039;-69
2022/12/29 01:26:42;;;;;;;244.10;229.65;;;11.20;99.90;;;;;;5098136;28;20134;-70
2022/12/29 01:29:08;;;;;;;247.57;233.05;;;11.30;99.90;;;;;;5099213;28;20123;-69
2022/12/29 01:31:34;;;;;;;244.77;229.80;;;11.30;99.90;;;;;;5082519;28;20044;-69
2022/12/29 01:34:00;;;;;;;245.70;231.43;;;11.40;99.90;;;;;;5099737;28;20032;-69
2022/12/29 01:36:26;;;;;;;243.40;228.95;;;11.40;99.90;;;;;;5100625;28;20444;-69
2022/12/29 01:38:51;;;;;;;243.57;229.07;;;11.50;99.90;;;;;;5082579;28;20413;-69
2022/12/29 01:41:18;;;;;;;251.57;236.27;;;11.50;99.90;;;;;;5100222;28;20431;-69
2022/12/29 01:43:50;;;;;;;247.90;233.15;;;11.50;99.90;;;;;;5100532;28;20332;-69
2022/12/29 01:46:16;;;;;;;247.68;232.75;;;11.50;99.90;;;;;;5100504;28;20063;-69
2022/12/29 01:48:43;;;;;;;249.70;234.40;;;11.40;99.90;;;;;;5100354;28;20044;-69
2022/12/29 01:51:09;;;;;;;249.65;234.85;;;11.40;99.90;;;;;;5100338;28;20036;-69
2022/12/29 01:53:36;;;;;;;251.18;235.77;;;11.30;99.90;;;;;;5100056;28;20047;-69
2022/12/29 01:56:05;;;;;;;251.02;235.77;;;11.40;99.90;;;;;;5098980;28;20125;-69
2022/12/29 01:58:37;;;;;;;250.27;235.07;;;11.40;99.90;;;;;;5100216;28;20124;-69
2022/12/29 02:01:04;;;;;;;246.05;231.25;;;11.50;99.90;;;;;;5100060;28;20118;-69
2022/12/29 02:03:32;;;;;;;243.32;228.73;;;11.60;99.90;;;;;;5100025;28;20133;-69
2022/12/29 02:06:32;;;;;;;244.80;230.10;;;11.40;99.90;;;;;;5100064;28;20042;-69
2022/12/29 02:08:59;;;;;;;246.00;231.55;;;11.40;99.90;;;;;;5097601;28;20448;-69
2022/12/29 02:11:27;;;;;;;244.63;230.00;;;11.50;99.90;;;;;;5099578;28;20115;-69
2022/12/29 02:13:53;;;;;;;240.38;226.20;;;11.30;99.90;;;;;;5099917;28;20112;-69
2022/12/29 02:16:49;;;;;;;246.98;231.73;;;11.20;99.90;;;;;;5099869;28;20425;-69
2022/12/29 02:19:30;;;;;;;246.95;232.00;;;11.30;99.90;;;;;;5098744;28;20333;-69
2022/12/29 02:21:58;;;;;;;247.88;233.20;;;11.20;99.90;;;;;;5099815;28;20044;-69
2022/12/29 02:24:42;;;;;;;249.50;234.40;;;11.30;99.90;;;;;;5099661;28;20044;-69
2022/12/29 02:27:35;;;;;;;246.35;231.25;;;11.20;99.90;;;;;;5098403;28;20044;-69
2022/12/29 02:30:30;;;;;;;232.90;218.68;;;11.30;99.90;;;;;;5097337;28;20055;-69
2022/12/29 02:33:03;;;;;;;232.95;219.05;;;11.20;99.90;;;;;;5061129;28;20049;-69
2022/12/29 02:35:37;;;;;;;234.32;220.48;;;11.30;99.90;;;;;;5097011;28;20046;-69
2022/12/29 02:38:23;;;;;;;239.45;225.05;;;11.30;99.90;;;;;;5096629;28;20458;-69
2022/12/29 02:40:57;;;;;;;251.53;236.23;;;11.40;99.90;;;;;;5096317;28;20127;-69
2022/12/29 02:43:47;;;;;;;250.73;235.68;;;11.30;99.90;;;;;;5098317;28;20055;-69
2022/12/29 02:46:27;;;;;;;253.10;238.00;;;11.30;99.90;;;;;;5097955;28;20101;-69
2022/12/29 02:48:59;;;;;;;250.82;235.73;;;11.30;99.90;;;;;;5098135;28;20044;-69
2022/12/29 02:51:52;;;;;;;250.43;235.27;;;11.20;99.90;;;;;;5098139;28;20036;-69
2022/12/29 02:57:09;;;;;;;254.48;238.30;;;11.10;99.90;;;;;;5097788;28;20388;-69
2022/12/29 02:59:35;;;;;;;250.48;235.02;;;11.10;99.90;;;;;;5098099;28;20036;-69
2022/12/29 03:02:31;;;;;;;247.07;231.88;;;11.00;99.90;;;;;;5097769;28;20550;-69
2022/12/29 03:05:02;;;;;;;240.05;225.43;;;11.10;99.90;;;;;;5097423;28;20453;-69
2022/12/29 03:07:40;;;;;;;237.40;222.63;;;11.20;99.90;;;;;;5097691;28;20036;-69
2022/12/29 03:10:19;;;;;;;240.85;225.88;;;11.20;99.90;;;;;;5097238;28;20048;-69
2022/12/29 03:18:25;;;;;;;254.07;238.18;;;11.30;99.90;;;;;;5097689;28;20055;-69
2022/12/29 03:21:14;;;;;;;251.02;235.27;;;11.30;99.90;;;;;;5097827;28;20036;-69
2022/12/29 03:23:43;;;;;;;250.93;235.60;;;11.30;99.90;;;;;;5097624;28;20036;-69
2022/12/29 03:26:12;;;;;;;251.18;235.88;;;11.30;99.90;;;;;;5097272;28;20109;-69
2022/12/29 03:28:45;;;;;;;251.27;235.43;;;11.30;99.90;;;;;;5054553;28;1217087;-70
2022/12/29 03:31:13;;;;;;;246.43;231.02;;;11.20;99.90;;;;;;5097508;28;20051;-69
2022/12/29 03:33:42;;;;;;;243.70;228.60;;;11.20;99.90;;;;;;5098450;28;20040;-69
2022/12/29 03:36:18;;;;;;;229.05;215.45;;;11.10;99.90;;;;;;5098382;28;20067;-69
2022/12/29 03:38:55;;;;;;;224.02;211.02;;;11.10;99.90;;;;;;5097287;28;20043;-70
2022/12/29 03:41:27;;;;;;;226.85;213.65;;;11.00;99.90;;;;;;5098011;28;20117;-69
2022/12/29 03:43:52;;;;;;;220.40;207.45;;;11.00;99.90;;;;;;5098283;28;20093;-69
2022/12/29 03:46:18;;;;;;;216.90;204.75;;;10.90;99.90;;;;;;5098165;28;20480;-69
2022/12/29 03:48:44;;;;;;;215.57;203.40;;;10.80;99.90;;;;;;5096431;28;20450;-69
2022/12/29 03:51:10;;;;;;;224.23;211.82;;;10.90;99.90;;;;;;5097961;28;20044;-69
2022/12/29 03:53:35;;;;;;;223.52;210.70;;;11.00;99.90;;;;;;5098065;28;20047;-69
2022/12/29 03:56:01;;;;;;;237.13;223.23;;;11.10;99.90;;;;;;5096990;28;20429;-69
2022/12/29 03:58:27;;;;;;;237.20;223.32;;;11.10;99.90;;;;;;5098317;28;20040;-69
2022/12/29 04:00:52;;;;;;;222.52;209.52;;;11.10;99.90;;;;;;5097901;28;20456;-69
2022/12/29 04:03:18;;;;;;;233.20;219.85;;;11.00;99.90;;;;;;5097828;28;20359;-69
2022/12/29 04:05:43;;;;;;;229.73;215.98;;;11.00;99.90;;;;;;5080046;28;20379;-69
2022/12/29 04:08:09;;;;;;;216.13;203.10;;;11.10;99.90;;;;;;5097695;28;20365;-69
2022/12/29 04:10:35;;;;;;;228.15;214.65;;;11.00;99.90;;;;;;5097370;28;20044;-69
2022/12/29 04:13:00;;;;;;;231.82;217.95;;;11.00;99.90;;;;;;5096635;28;20119;-69
2022/12/29 04:15:26;;;;;;;221.30;208.50;;;11.00;99.90;;;;;;5097603;28;20067;-69
2022/12/29 04:17:52;;;;;;;230.52;217.23;;;11.00;99.90;;;;;;5098123;28;20043;-70
2022/12/29 04:23:04;;;;;;;216.15;203.93;;;11.10;99.90;;;;;;5097239;28;20444;-69
2022/12/29 04:25:31;;;;;;;215.60;203.10;;;11.00;99.90;;;;;;5096333;28;20510;-69
2022/12/29 04:27:57;;;;;;;216.13;203.63;;;11.00;99.90;;;;;;5097369;28;20329;-69
2022/12/29 04:30:23;;;;;;;214.02;201.68;;;11.00;99.90;;;;;;5096935;28;20161;-69
2022/12/29 04:32:49;;;;;;;210.27;198.55;;;11.00;99.90;;;;;;5079092;28;20073;-69
2022/12/29 04:35:14;;;;;;;195.27;184.68;;;11.00;99.90;;;;;;5096304;28;20071;-69
2022/12/29 04:37:40;;;;;;;184.65;174.65;;;10.90;99.90;;;;;;5097289;28;20068;-69
2022/12/29 04:40:06;;;;;;;155.88;147.63;;;10.90;99.90;;;;;;5095789;28;20344;-69
2022/12/29 04:42:32;;;;;;;162.43;153.88;;;10.90;99.90;;;;;;5097664;28;20044;-69
2022/12/29 04:44:58;;;;;;;159.15;150.77;;;10.80;99.90;;;;;;5097124;28;20341;-69
2022/12/29 04:47:23;;;;;;;134.63;127.75;;;10.90;99.90;;;;;;5096056;28;20433;-69
2022/12/29 04:49:49;;;;;;;146.73;139.18;;;10.90;99.90;;;;;;5096651;28;20129;-70
2022/12/29 04:52:15;;;;;;;175.10;165.88;;;10.90;99.90;;;;;;5097025;28;20047;-69
2022/12/29 04:54:40;;;;;;;160.95;152.57;;;10.80;99.90;;;;;;5095772;28;20072;-69
2022/12/29 04:57:06;;;;;;;183.45;173.43;;;10.90;99.90;;;;;;5096936;28;20073;-69
2022/12/29 04:59:32;;;;;;;175.85;166.98;;;10.90;99.90;;;;;;5078765;28;20345;-69
2022/12/29 05:01:58;;;;;;;175.05;165.43;;;10.80;99.90;;;;;;5096758;28;20040;-69
2022/12/29 05:04:23;;;;;;;180.20;170.60;;;10.80;99.90;;;;;;5096939;28;20040;-70
2022/12/29 05:06:49;;;;;;;169.13;160.20;;;10.80;99.90;;;;;;5095793;28;20076;-69
2022/12/29 05:09:15;;;;;;;153.95;145.55;;;10.80;99.90;;;;;;5096701;28;20413;-70
2022/12/29 05:11:40;;;;;;;154.18;145.85;;;10.80;99.90;;;;;;5096426;28;20114;-70
2022/12/29 05:14:06;;;;;;;156.57;148.18;;;10.70;99.90;;;;;;5096470;28;20043;-69
2022/12/29 05:16:32;;;;;;;174.15;163.90;;;10.60;99.90;;;;;;5095535;28;20036;-69
2022/12/29 05:18:57;;;;;;;190.35;179.55;;;10.70;99.90;;;;;;5096674;28;20126;-69
2022/12/29 05:21:23;;;;;;;202.55;191.05;;;10.60;99.90;;;;;;5096666;28;20044;-69
2022/12/29 05:23:49;;;;;;;180.88;169.93;;;10.60;99.90;;;;;;5096630;28;20036;-70
2022/12/29 05:26:14;;;;;;;196.07;184.27;;;10.50;99.90;;;;;;5096641;28;20543;-69
2022/12/29 05:28:40;;;;;;;201.15;189.43;;;10.50;99.90;;;;;;5096411;28;20043;-70
2022/12/29 05:31:06;;;;;;;202.63;191.13;;;10.50;99.90;;;;;;5096614;28;20436;-69
2022/12/29 05:33:31;;;;;;;206.48;194.15;;;10.60;99.90;;;;;;5095641;28;20321;-69
2022/12/29 05:36:03;;;;;;;212.55;200.25;;;10.40;99.90;;;;;;5095261;28;20050;-69
2022/12/29 05:38:28;;;;;;;214.27;201.55;;;10.50;99.90;;;;;;5095263;28;20123;-69
2022/12/29 05:40:54;;;;;;;202.23;190.77;;;10.40;99.90;;;;;;5095208;28;20120;-69
2022/12/29 05:43:19;;;;;;;206.82;194.15;;;10.30;99.90;;;;;;5078417;28;20036;-69
2022/12/29 05:45:49;;;;;;;193.98;182.55;;;10.30;99.90;;;;;;5096181;28;20048;-69
2022/12/29 05:48:15;;;;;;;200.68;189.07;;;10.30;99.90;;;;;;5095109;28;20047;-69
2022/12/29 05:50:41;;;;;;;166.02;155.82;;;10.30;99.90;;;;;;5096414;28;20072;-69
2022/12/29 05:53:06;;;;;;;174.48;163.80;;;10.30;99.90;;;;;;5096366;28;20071;-69
2022/12/29 05:55:32;;;;;;;190.77;179.02;;;10.30;99.90;;;;;;5096099;28;20058;-69
2022/12/29 05:57:58;;;;;;;184.50;173.80;;;10.30;99.90;;;;;;5096658;28;20040;-69
2022/12/29 06:00:24;;;;;;;187.75;176.68;;;10.30;99.90;;;;;;5096319;28;20325;-69
2022/12/29 06:02:49;;;;;;;203.38;191.20;;;10.20;99.90;;;;;;5095321;28;20079;-70
2022/12/29 06:05:16;;;;;;;204.52;192.35;;;10.30;99.90;;;;;;5094974;28;20039;-69
2022/12/29 06:07:41;;;;;;;195.43;183.95;;;10.40;99.90;;;;;;5096271;28;20040;-70
2022/12/29 06:10:08;;;;;;;191.75;180.52;;;10.40;99.90;;;;;;5094446;28;20051;-70
2022/12/29 06:12:33;;;;;;;202.55;190.70;;;10.40;99.90;;;;;;5097402;28;20036;-69
2022/12/29 06:14:59;;;;;;;215.68;203.35;;;10.50;99.90;;;;;;5099907;28;20531;-70
2022/12/29 06:17:24;;;;;;;217.32;204.57;;;10.50;99.90;;;;;;5099919;28;20425;-69
2022/12/29 06:19:50;;;;;;;204.80;192.43;;;10.60;99.90;;;;;;5098884;28;20306;-69
2022/12/29 06:22:16;;;;;;;187.30;176.50;;;10.50;99.90;;;;;;5099812;28;20310;-69
2022/12/29 06:24:41;;;;;;;189.55;178.82;;;10.40;99.90;;;;;;5099752;28;20425;-69
2022/12/29 06:27:07;;;;;;;172.13;162.52;;;10.40;99.90;;;;;;5081468;28;20356;-69
2022/12/29 06:29:34;;;;;;;184.20;174.35;;;10.40;99.90;;;;;;5099240;28;20048;-69
2022/12/29 06:32:00;;;;;;;185.25;174.93;;;10.40;99.90;;;;;;5099625;28;20044;-69
2022/12/29 06:34:26;;;;;;;191.70;180.52;;;10.40;99.90;;;;;;5098812;28;20073;-69
2022/12/29 06:36:51;;;;;;;185.10;174.43;;;10.30;99.90;;;;;;5099481;28;20436;-70
2022/12/29 06:39:17;;;;;;;177.38;166.82;;;10.20;99.90;;;;;;5099537;28;20038;-69
2022/12/29 06:41:43;;;;;;;175.02;165.00;;;10.20;99.90;;;;;;5099074;28;20417;-69
2022/12/29 06:44:08;;;;;;;179.05;168.88;;;10.20;99.90;;;;;;5099480;28;20460;-70
2022/12/29 06:46:34;;;;;;;161.93;152.30;;;10.20;99.90;;;;;;5099379;28;20051;-69
2022/12/29 06:49:00;;;;;;;158.00;148.55;;;10.10;99.90;;;;;;5097892;28;20055;-69
2022/12/29 06:51:25;;;;;;;151.10;142.15;;;10.10;99.90;;;;;;5099221;28;20044;-69
2022/12/29 06:53:51;;;;;;;146.85;139.02;;;10.10;99.90;;;;;;5099179;28;20043;-69
2022/12/29 06:56:17;;;;;;;150.27;142.02;;;10.00;99.90;;;;;;5098167;28;20036;-69
2022/12/29 06:58:42;;;;;;;152.25;142.80;;;10.00;99.90;;;;;;5097756;28;20131;-69
2022/12/29 07:01:08;;;;;;;150.70;142.50;;;10.00;99.90;;;;;;5097717;28;20093;-69
2022/12/29 07:03:34;;;;;;;140.38;132.80;;;10.00;99.90;;;;;;5097699;28;20048;-69
2022/12/29 07:05:59;;;;;;;145.90;137.35;;;10.00;99.90;;;;;;5098964;28;20040;-69
2022/12/29 07:08:25;;;;;;;152.98;143.93;;;10.00;99.90;;;;;;5080718;28;20083;-69
2022/12/29 07:10:51;;;;;;;151.05;142.13;;;10.00;99.90;;;;;;5098469;28;20043;-69
2022/12/29 07:13:16;;;;;;;159.65;149.27;;;10.10;99.90;;;;;;5097797;28;20362;-69
2022/12/29 07:15:42;;;;;;;162.10;152.30;;;10.10;99.90;;;;;;5098108;28;20032;-69
2022/12/29 07:18:08;;;;;;;173.13;163.32;;;10.10;99.90;;;;;;5097426;28;20115;-69
2022/12/29 07:20:33;;;;;;;163.27;154.00;;;10.20;99.90;;;;;;5098395;28;20108;-69
2022/12/29 07:22:59;;;;;;;147.57;138.27;;;10.20;99.90;;;;;;5098531;28;20075;-69
2022/12/29 07:25:25;;;;;;;146.48;137.93;;;10.20;99.90;;;;;;5079409;28;20040;-69
2022/12/29 07:27:50;;;;;;;153.90;144.40;;;10.20;99.90;;;;;;5097470;28;20047;-69
2022/12/29 07:30:16;;;;;;;151.05;142.10;;;10.20;99.90;;;;;;5098072;28;20059;-69
2022/12/29 07:32:42;;;;;;;144.63;135.63;;;10.30;99.90;;;;;;5098415;28;20040;-69
2022/12/29 07:35:08;;;;;;;151.45;142.10;;;10.20;99.90;;;;;;5097448;28;20032;-69
2022/12/29 07:37:34;;;;;;;132.77;124.95;;;10.20;99.90;;;;;;5080425;28;20413;-69
2022/12/29 07:40:01;;;;;;;144.68;136.30;;;10.20;99.90;;;;;;5098117;28;20133;-69
2022/12/29 07:42:27;;;;;;;138.52;130.30;;;10.20;99.90;;;;;;5096671;28;20028;-70
2022/12/29 07:44:53;;;;;;;134.55;126.50;;;10.30;99.90;;;;;;5096153;28;20043;-70
2022/12/29 07:47:18;;;;;;;137.75;129.18;;;10.20;99.90;;;;;;5096357;28;20399;-69
2022/12/29 07:49:44;;;;;;;142.15;134.00;;;10.20;99.90;;;;;;5097765;28;20040;-69
2022/12/29 07:52:10;;;;;;;144.02;135.65;;;10.30;99.90;;;;;;5096856;28;20119;-69
2022/12/29 07:54:35;;;;;;;156.75;147.55;;;10.30;99.90;;;;;;5098027;28;20043;-71
2022/12/29 07:57:01;;;;;;;154.05;145.27;;;10.30;99.90;;;;;;5097979;28;20505;-67
2022/12/29 07:59:27;;;;;;;149.52;140.63;;;10.40;99.90;;;;;;5096621;28;20118;-68
2022/12/29 08:01:52;;;;;;;144.50;136.13;;;10.40;99.90;;;;;;5097605;28;20036;-68
2022/12/29 08:04:18;;;;;;;142.30;133.55;;;10.30;99.90;;;;;;5096757;28;20087;-68
2022/12/29 08:06:45;;;;;;;156.43;147.25;;;10.30;99.90;;;;;;5097794;28;20031;-68
2022/12/29 08:09:11;;;;;;;153.77;144.55;;;10.30;99.90;;;;;;5097695;28;20361;-67
2022/12/29 08:11:36;;;;;;;153.98;144.63;;;10.30;99.90;;;;;;5095979;28;20112;-67
2022/12/29 08:14:03;;;;;;;156.77;147.20;;;10.30;99.90;;;;;;5097648;28;20040;-67
2022/12/29 08:16:28;;;;;;;159.10;150.20;;;10.30;99.90;;;;;;5097614;28;20036;-67
2022/12/29 08:18:54;;;;;;;150.55;141.88;;;10.40;99.90;;;;;;5097603;28;20153;-67
2022/12/29 08:21:20;;;;;;;155.02;146.02;;;10.30;99.90;;;;;;5096269;28;20055;-67
2022/12/29 08:23:46;;;;;;;153.95;144.70;;;10.30;99.90;;;;;;5097467;28;20317;-67
2022/12/29 08:26:12;;;;;;;137.07;129.13;;;10.30;99.90;;;;;;5097435;28;20043;-69
2022/12/29 08:28:38;;;;;;;125.45;118.15;;;10.30;99.90;;;;;;5097308;28;20044;-68
2022/12/29 08:31:03;;;;;;;121.28;113.85;;;10.30;99.90;;;;;;5095811;28;20123;-67
2022/12/29 08:33:30;;;;;;;138.68;129.95;;;10.30;99.90;;;;;;5096980;28;20126;-68
2022/12/29 08:36:04;;;;;;;144.90;135.55;;;10.40;99.90;;;;;;5096903;28;20052;-67
2022/12/29 08:38:30;;;;;;;134.60;126.57;;;10.40;99.90;;;;;;5097200;28;20123;-67
2022/12/29 08:40:57;;;;;;;142.25;133.75;;;10.40;99.90;;;;;;5096788;28;20119;-67
2022/12/29 08:43:23;;;;;;;172.80;162.88;;;10.30;99.90;;;;;;5097149;28;20047;-67
2022/12/29 08:45:49;;;;;;;175.43;164.45;;;10.30;99.90;;;;;;5097145;28;20321;-67
2022/12/29 08:48:18;;;;;;;214.00;198.90;;;10.30;99.90;;;;;;5095704;28;20044;-67
2022/12/29 08:50:44;;;;;;;211.25;197.73;;;10.30;99.90;;;;;;5096841;28;20119;-67
2022/12/29 08:53:10;;;;;;;207.45;193.73;;;10.30;99.90;;;;;;5095971;28;20040;-67
2022/12/29 08:55:35;;;;;;;209.50;195.70;;;10.30;99.90;;;;;;5096965;28;20044;-67
2022/12/29 08:58:01;;;;;;;200.65;187.77;;;10.30;99.90;;;;;;5095628;28;20082;-67
2022/12/29 09:00:27;;;;;;;198.80;185.57;;;10.20;99.90;;;;;;5095592;28;20040;-67
2022/12/29 09:02:53;;;;;;;199.70;186.82;;;10.20;99.90;;;;;;5096866;28;20047;-67
2022/12/29 09:05:18;;;;;;;196.60;183.65;;;10.20;99.90;;;;;;5096818;28;20040;-68
2022/12/29 09:07:44;;;;;;;199.02;185.98;;;10.00;99.90;;;;;;5096546;28;20127;-68
2022/12/29 09:10:10;;;;;;;197.23;185.02;;;10.10;99.90;;;;;;5095650;28;20580;-68
2022/12/29 09:12:35;;;;;;;194.20;182.20;;;10.10;99.90;;;;;;5096410;28;20421;-68
2022/12/29 09:15:01;;;;;;;195.52;183.55;;;10.10;99.90;;;;;;5096779;28;20036;-67
2022/12/29 09:17:45;;;;;;;194.23;182.43;;;10.20;99.90;;;;;;5095681;28;20421;-67
2022/12/29 09:20:17;;;;;;;188.00;175.85;;;10.20;99.90;;;;;;5096473;28;20047;-68
2022/12/29 09:22:43;;;;;;;182.35;171.00;;;10.20;99.90;;;;;;5096687;28;20115;-68
2022/12/29 09:25:10;;;;;;;189.52;177.23;;;10.30;99.90;;;;;;5095612;28;20114;-67
2022/12/29 09:27:36;;;;;;;203.57;190.52;;;10.30;99.90;;;;;;5096643;28;20043;-68
2022/12/29 09:30:07;;;;;;;214.40;200.77;;;10.30;99.90;;;;;;5095942;28;20444;-68
2022/12/29 09:32:34;;;;;;;212.95;198.93;;;10.20;99.90;;;;;;5095283;28;20048;-68
2022/12/29 09:34:59;;;;;;;219.65;205.38;;;10.10;99.90;;;;;;5095610;28;20036;-68
2022/12/29 09:37:25;;;;;;;222.30;207.45;;;10.00;99.90;;;;;;5095695;28;20488;-68
2022/12/29 09:39:51;;;;;;;221.57;207.38;;;10.10;99.90;;;;;;5095576;28;20036;-68
2022/12/29 09:42:26;;;;;;;214.57;201.50;;;10.10;99.90;;;;;;5096137;28;20518;-68
2022/12/29 09:44:59;;;;;;;209.05;196.30;;;10.20;99.90;;;;;;5096504;28;20040;-68
2022/12/29 09:47:26;;;;;;;210.77;197.98;;;10.10;99.90;;;;;;5097177;28;20441;-68
2022/12/29 09:50:03;;;;;;;205.43;192.70;;;10.20;99.90;;;;;;5100095;28;20032;-68
2022/12/29 09:52:36;;;;;;;182.02;169.93;;;10.20;99.90;;;;;;5100419;28;20051;-68
2022/12/29 09:55:13;;;;;;;194.20;182.50;;;10.20;99.90;;;;;;5100415;28;20032;-67
2022/12/29 09:57:45;;;;;;;191.65;180.40;;;10.20;99.90;;;;;;5100361;28;20040;-68
2022/12/29 10:00:14;;;;;;;197.32;184.98;;;10.20;99.90;;;;;;5099999;28;20441;-67
2022/12/29 10:02:44;;;;;;;200.77;188.13;;;10.20;99.90;;;;;;5100253;28;20040;-69
2022/12/29 10:05:33;;;;;;;203.93;191.00;;;10.10;99.90;;;;;;5100103;28;20051;-66
2022/12/29 10:08:10;;;;;;;201.20;188.82;;;10.00;99.90;;;;;;5100198;28;20050;-67
2022/12/29 10:10:43;;;;;;;208.63;195.85;;;10.10;99.90;;;;;;5099660;28;20173;-67
2022/12/29 10:13:24;;;;;;;201.80;189.27;;;10.20;99.90;;;;;;5098999;28;20039;-67
2022/12/29 10:15:56;;;;;;;209.98;197.13;;;10.10;99.90;;;;;;5099935;28;20118;-67
2022/12/29 10:18:40;;;;;;;216.90;202.35;;;10.10;99.90;;;;;;5098884;28;20052;-68
2022/12/29 10:21:08;;;;;;;217.13;203.05;;;10.00;99.90;;;;;;5098875;28;20044;-67
2022/12/29 10:23:53;;;;;;;223.25;208.98;;;10.00;99.90;;;;;;5099820;28;20043;-67
2022/12/29 10:26:26;;;;;;;221.55;207.27;;;10.00;99.90;;;;;;5099771;28;20321;-66
2022/12/29 10:28:56;;;;;;;217.63;203.40;;;10.00;99.90;;;;;;5099629;28;20322;-67
2022/12/29 10:31:24;;;;;;;219.02;204.23;;;9.80;99.90;;;;;;5099347;28;20350;-67
2022/12/29 10:33:56;;;;;;;217.32;202.50;;;9.80;99.90;;;;;;5099307;28;20062;-67
2022/12/29 10:36:38;;;;;;;214.10;199.30;;;9.80;99.90;;;;;;5099581;28;20040;-67
2022/12/29 10:39:30;;;;;;;216.52;201.65;;;9.80;99.90;;;;;;5099542;28;20426;-66
2022/12/29 10:42:21;;;;;;;212.70;198.05;;;9.70;99.90;;;;;;5099156;28;20039;-67
2022/12/29 10:44:47;;;;;;;212.15;198.02;;;9.70;99.90;;;;;;5099491;28;20044;-67
2022/12/29 10:47:18;;;;;;;211.25;197.02;;;9.60;99.90;;;;;;5098406;28;20093;-67
2022/12/29 10:49:47;;;;;;;212.20;197.65;;;9.50;99.90;;;;;;5099230;28;20055;-67
2022/12/29 10:52:15;;;;;;;215.45;200.30;;;9.50;99.90;;;;;;5081298;28;20036;-67
2022/12/29 10:55:01;;;;;;;219.00;203.75;;;9.50;99.90;;;;;;5098885;28;20122;-67
2022/12/29 10:57:33;;;;;;;211.07;197.18;;;9.40;99.90;;;;;;5099360;28;20114;-67
2022/12/29 10:59:58;;;;;;;207.93;193.07;;;9.40;99.90;;;;;;5098546;28;20475;-67
2022/12/29 11:03:01;;;;;;;208.52;193.30;;;9.40;99.90;;;;;;5099147;28;20090;-67
2022/12/29 11:06:05;;;;;;;206.88;193.57;;;9.40;99.90;;;;;;5099078;28;20048;-67
2022/12/29 11:08:37;;;;;;;202.15;188.50;;;9.40;99.90;;;;;;5095070;28;20052;-67
2022/12/29 11:11:06;;;;;;;203.05;189.48;;;9.60;99.90;;;;;;5098526;28;20068;-67
2022/12/29 11:13:34;;;;;;;209.57;195.40;;;9.50;99.90;;;;;;5097528;28;20044;-67
2022/12/29 11:16:02;;;;;;;203.40;189.50;;;9.60;99.90;;;;;;5097767;28;20036;-67
2022/12/29 11:18:37;;;;;;;207.35;193.68;;;9.70;99.90;;;;;;5096824;28;20047;-67
2022/12/29 11:21:06;;;;;;;195.07;182.18;;;10.00;99.90;;;;;;5098058;28;20077;-67
2022/12/29 11:23:40;;;;;;;190.20;178.32;;;10.20;99.90;;;;;;5096749;28;20043;-67
2022/12/29 11:26:06;;;;;;;187.70;175.43;;;10.30;99.90;;;;;;5097058;28;20310;-67
2022/12/29 11:28:33;;;;;;;167.35;156.85;;;10.30;99.90;;;;;;5098487;28;20032;-66
2022/12/29 11:31:03;;;;;;;182.70;171.20;;;10.20;99.90;;;;;;5098212;28;20059;-67
2022/12/29 11:33:31;;;;;;;190.60;178.15;;;10.20;99.90;;;;;;5097084;28;20052;-67
2022/12/29 11:36:07;;;;;;;190.75;178.63;;;10.30;99.90;;;;;;5098416;28;20073;-67
2022/12/29 11:38:49;;;;;;;192.70;180.80;;;10.30;99.90;;;;;;5097114;28;20047;-67
2022/12/29 11:41:30;;;;;;;187.05;174.57;;;10.50;99.90;;;;;;5097978;28;20055;-68
2022/12/29 11:43:59;;;;;;;195.88;183.10;;;10.40;99.90;;;;;;5098319;28;20043;-68
2022/12/29 11:46:36;;;;;;;194.73;181.23;;;10.30;99.90;;;;;;5097912;28;20043;-68
2022/12/29 11:49:03;;;;;;;;;;;10.40;99.90;;;;;;5098813;28;20127;-67
2022/12/29 11:51:44;;;;;;;185.18;172.77;;;10.50;99.90;;;;;;5097094;28;19999;-67
2022/12/29 11:54:22;;;;;;;178.20;166.75;;;10.50;99.90;;;;;;5098120;28;20115;-67
2022/12/29 11:56:49;;;;;;;170.05;158.80;;;10.50;99.90;;;;;;5098034;28;20036;-68
2022/12/29 11:59:27;;;;;;;170.20;159.85;;;10.40;99.90;;;;;;5096682;28;20090;-70
2022/12/29 12:01:54;;;;;;;186.35;174.73;;;10.20;99.90;;;;;;5096960;28;20040;-69
2022/12/29 12:04:25;;;;;;;192.00;179.27;;;10.20;99.90;;;;;;5097543;28;20039;-67
2022/12/29 12:07:25;;;;;;;191.80;178.85;;;10.30;99.90;;;;;;5097839;28;20071;-67
2022/12/29 12:09:58;;;;;;;191.52;178.90;;;10.50;99.90;;;;;;5087688;28;20048;-67
2022/12/29 12:12:41;;;;;;;168.00;156.38;;;10.60;99.90;;;;;;5097072;28;20485;-67
2022/12/29 12:15:19;;;;;;;171.93;160.93;;;10.50;99.90;;;;;;5097706;28;20036;-68
2022/12/29 12:18:21;;;;;;;172.88;161.77;;;10.50;99.90;;;;;;5097344;28;20413;-67
2022/12/29 12:20:56;;;;;;;171.82;161.20;;;10.40;99.90;;;;;;5075412;28;20047;-67
2022/12/29 12:23:55;;;;;;;192.90;180.17;;;10.30;99.90;;;;;;5097755;28;20086;-67
2022/12/29 12:26:31;;;;;;;191.32;179.18;;;10.30;99.90;;;;;;5097484;28;20093;-67
2022/12/29 12:29:24;;;;;;;190.13;177.40;;;10.30;99.90;;;;;;5097478;28;20032;-67
2022/12/29 12:32:19;;;;;;;184.85;172.73;;;10.20;99.90;;;;;;5096976;28;20048;-67
2022/12/29 12:34:46;;;;;;;184.60;172.43;;;10.10;99.90;;;;;;5096697;28;20040;-67
2022/12/29 12:37:39;;;;;;;182.68;170.90;;;10.10;99.90;;;;;;5097323;28;20089;-67
2022/12/29 12:40:28;;;;;;;176.48;165.00;;;10.00;99.90;;;;;;5097284;28;20040;-67
2022/12/29 12:43:03;;;;;;;172.00;160.43;;;9.90;99.90;;;;;;5096520;28;20046;-67
2022/12/29 12:45:46;;;;;;;177.25;166.18;;;9.90;99.90;;;;;;5097139;28;20101;-67
2022/12/29 12:48:19;;;;;;;157.80;148.23;;;10.00;99.90;;;;;;5097145;28;20040;-67
2022/12/29 12:50:47;;;;;;;137.82;128.57;;;9.90;99.90;;;;;;5097117;28;20040;-68
2022/12/29 12:53:24;;;;;;;128.65;121.28;;;10.00;99.90;;;;;;5097057;28;20115;-69
2022/12/29 12:55:58;;;;;;;115.78;109.20;;;10.00;99.90;;;;;;5097044;28;20044;-68
2022/12/29 12:59:06;;;;;;;106.80;100.50;;;10.00;99.90;;;;;;5096982;28;20039;-67
2022/12/29 13:02:07;;;;;;;108.43;102.25;;;10.10;99.90;;;;;;5075200;28;20090;-68
2022/12/29 13:04:38;;;;;;;79.07;74.13;;;10.10;99.90;;;;;;5073784;28;20382;-67